Wetterdaten: Sonntag, 16.09.2012
Datum Zeit Temperatur Luftfeuchte Luftdruck Regen Wind Richtung Richtung Sonnenschein Taupunkt Windchill
16.09.2012 00:03 8,9 C 74 % 1018,7 hPa 0,0 l/m 0,0 km/h (0 Bft) S-SW 210 0 min 4,5 C 8,9 C
16.09.2012 00:09 8,8 C 74 % 1018,7 hPa 0,0 l/m 0,0 km/h (0 Bft) S-SW 210 0 min 4,4 C 8,8 C
16.09.2012 00:14 8,7 C 74 % 1018,7 hPa 0,0 l/m 0,0 km/h (0 Bft) S-SW 210 0 min 4,3 C 8,7 C
16.09.2012 00:19 8,6 C 74 % 1018,7 hPa 0,0 l/m 0,0 km/h (0 Bft) SW 215 0 min 4,2 C 8,6 C
16.09.2012 00:24 8,5 C 74 % 1018,7 hPa 0,0 l/m 0,0 km/h (0 Bft) SW 215 0 min 4,1 C 8,5 C
16.09.2012 00:29 8,5 C 74 % 1018,7 hPa 0,0 l/m 0,0 km/h (0 Bft) SW 215 0 min 4,1 C 8,5 C
16.09.2012 00:34 8,4 C 74 % 1018,7 hPa 0,0 l/m 0,0 km/h (0 Bft) SW 215 0 min 4,0 C 8,4 C
16.09.2012 00:38 8,4 C 74 % 1018,7 hPa 0,0 l/m 0,0 km/h (0 Bft) SW 225 0 min 4,0 C 8,4 C
16.09.2012 00:44 8,2 C 74 % 1018,7 hPa 0,0 l/m 0,0 km/h (0 Bft) SW 215 0 min 3,8 C 8,2 C
16.09.2012 00:49 8,2 C 74 % 1018,7 hPa 0,0 l/m 0,0 km/h (0 Bft) SW 215 0 min 3,8 C 8,2 C
16.09.2012 00:54 8,1 C 74 % 1018,7 hPa 0,0 l/m 0,0 km/h (0 Bft) SW 215 0 min 3,8 C 8,1 C
16.09.2012 00:59 8,1 C 74 % 1018,7 hPa 0,0 l/m 0,0 km/h (0 Bft) SW 215 0 min 3,8 C 8,1 C
16.09.2012 01:04 8,0 C 74 % 1018,7 hPa 0,0 l/m 0,0 km/h (0 Bft) SW 215 0 min 3,7 C 8,0 C
16.09.2012 01:09 7,9 C 75 % 1018,7 hPa 0,0 l/m 0,0 km/h (0 Bft) S-SW 210 0 min 3,7 C 7,9 C
16.09.2012 01:14 7,9 C 75 % 1018,7 hPa 0,0 l/m 0,0 km/h (0 Bft) SW 215 0 min 3,7 C 7,9 C
16.09.2012 01:19 7,8 C 75 % 1018,7 hPa 0,0 l/m 0,0 km/h (0 Bft) SW 215 0 min 3,7 C 7,8 C
16.09.2012 01:24 7,8 C 76 % 1018,7 hPa 0,0 l/m 0,0 km/h (0 Bft) SW 215 0 min 3,8 C 7,8 C
16.09.2012 01:29 7,8 C 76 % 1018,7 hPa 0,0 l/m 0,0 km/h (0 Bft) SW 215 0 min 3,8 C 7,8 C
16.09.2012 01:34 7,8 C 76 % 1018,7 hPa 0,0 l/m 0,0 km/h (0 Bft) SW 215 0 min 3,8 C 7,8 C
16.09.2012 01:39 7,8 C 76 % 1018,7 hPa 0,0 l/m 0,0 km/h (0 Bft) S-SW 210 0 min 3,8 C 7,8 C
16.09.2012 01:44 7,6 C 76 % 1018,7 hPa 0,0 l/m 0,0 km/h (0 Bft) S-SW 210 0 min 3,6 C 7,6 C
16.09.2012 01:49 7,6 C 76 % 1018,7 hPa 0,0 l/m 0,0 km/h (0 Bft) S-SW 210 0 min 3,6 C 7,6 C
16.09.2012 01:54 7,5 C 76 % 1018,7 hPa 0,0 l/m 0,0 km/h (0 Bft) S-SW 210 0 min 3,5 C 7,5 C
16.09.2012 01:59 7,4 C 76 % 1018,7 hPa 0,0 l/m 0,0 km/h (0 Bft) S-SW 210 0 min 3,5 C 7,4 C
16.09.2012 02:04 7,4 C 76 % 1018,7 hPa 0,0 l/m 0,0 km/h (0 Bft) S-SW 210 0 min 3,5 C 7,4 C
16.09.2012 02:09 7,4 C 76 % 1018,7 hPa 0,0 l/m 0,0 km/h (0 Bft) S-SW 210 0 min 3,5 C 7,4 C
16.09.2012 02:14 7,3 C 76 % 1018,7 hPa 0,0 l/m 0,0 km/h (0 Bft) S-SW 210 0 min 3,4 C 7,3 C
16.09.2012 02:19 7,3 C 76 % 1018,7 hPa 0,0 l/m 0,0 km/h (0 Bft) S-SW 210 0 min 3,4 C 7,3 C
16.09.2012 02:24 7,2 C 76 % 1018,7 hPa 0,0 l/m 0,0 km/h (0 Bft) S-SW 210 0 min 3,3 C 7,2 C
16.09.2012 02:29 7,2 C 76 % 1018,7 hPa 0,0 l/m 0,0 km/h (0 Bft) S-SW 210 0 min 3,3 C 7,2 C
16.09.2012 02:34 7,2 C 76 % 1018,7 hPa 0,0 l/m 0,0 km/h (0 Bft) S-SW 210 0 min 3,3 C 7,2 C
16.09.2012 02:39 7,1 C 76 % 1018,7 hPa 0,0 l/m 0,0 km/h (0 Bft) S-SW 210 0 min 3,2 C 7,1 C
16.09.2012 02:44 7,1 C 76 % 1018,7 hPa 0,0 l/m 0,0 km/h (0 Bft) S-SW 210 0 min 3,2 C 7,1 C
16.09.2012 02:49 7,1 C 77 % 1018,7 hPa 0,0 l/m 0,0 km/h (0 Bft) S-SW 210 0 min 3,3 C 7,1 C
16.09.2012 02:54 7,0 C 77 % 1018,7 hPa 0,0 l/m 0,0 km/h (0 Bft) S-SW 210 0 min 3,2 C 7,0 C
16.09.2012 02:59 7,0 C 76 % 1018,7 hPa 0,0 l/m 0,0 km/h (0 Bft) S-SW 210 0 min 3,1 C 7,0 C
16.09.2012 03:04 6,9 C 78 % 1018,7 hPa 0,0 l/m 0,0 km/h (0 Bft) SW 220 0 min 3,3 C 6,9 C
16.09.2012 03:09 6,9 C 78 % 1018,7 hPa 0,0 l/m 0,0 km/h (0 Bft) SW 215 0 min 3,3 C 6,9 C
16.09.2012 03:14 6,8 C 78 % 1018,7 hPa 0,0 l/m 0,0 km/h (0 Bft) SW 215 0 min 3,2 C 6,8 C
16.09.2012 03:19 6,8 C 78 % 1017,7 hPa 0,0 l/m 0,0 km/h (0 Bft) SW 215 0 min 3,2 C 6,8 C
16.09.2012 03:24 6,8 C 78 % 1017,7 hPa 0,0 l/m 0,0 km/h (0 Bft) SW 215 0 min 3,2 C 6,8 C
16.09.2012 03:29 6,7 C 78 % 1017,7 hPa 0,0 l/m 0,0 km/h (0 Bft) SW 215 0 min 3,1 C 6,7 C
16.09.2012 03:34 6,6 C 78 % 1017,7 hPa 0,0 l/m 0,0 km/h (0 Bft) SW 215 0 min 3,0 C 6,6 C
16.09.2012 03:39 6,5 C 78 % 1017,7 hPa 0,0 l/m 0,0 km/h (0 Bft) S-SW 210 0 min 2,9 C 6,5 C
16.09.2012 03:44 6,5 C 78 % 1017,7 hPa 0,0 l/m 0,0 km/h (0 Bft) S-SW 210 0 min 2,9 C 6,5 C
16.09.2012 03:49 6,4 C 78 % 1017,7 hPa 0,0 l/m 0,0 km/h (0 Bft) S-SW 210 0 min 2,8 C 6,4 C
16.09.2012 03:54 6,4 C 78 % 1017,7 hPa 0,0 l/m 0,0 km/h (0 Bft) S-SW 210 0 min 2,8 C 6,4 C
16.09.2012 03:59 6,4 C 78 % 1017,7 hPa 0,0 l/m 0,0 km/h (0 Bft) S-SW 210 0 min 2,8 C 6,4 C
16.09.2012 04:04 6,4 C 78 % 1017,7 hPa 0,0 l/m 0,0 km/h (0 Bft) S-SW 210 0 min 2,8 C 6,4 C
16.09.2012 04:09 6,3 C 78 % 1017,7 hPa 0,0 l/m 0,0 km/h (0 Bft) S-SW 210 0 min 2,8 C 6,3 C
16.09.2012 04:14 6,3 C 78 % 1017,7 hPa 0,0 l/m 0,0 km/h (0 Bft) S-SW 210 0 min 2,8 C 6,3 C
16.09.2012 04:19 6,2 C 78 % 1017,7 hPa 0,0 l/m 0,0 km/h (0 Bft) S-SW 210 0 min 2,7 C 6,2 C
16.09.2012 04:24 6,2 C 78 % 1017,7 hPa 0,0 l/m 0,0 km/h (0 Bft) S-SW 210 0 min 2,7 C 6,2 C
16.09.2012 04:29 6,2 C 78 % 1017,7 hPa 0,0 l/m 0,0 km/h (0 Bft) S-SW 210 0 min 2,7 C 6,2 C
16.09.2012 04:34 6,2 C 78 % 1017,7 hPa 0,0 l/m 0,0 km/h (0 Bft) S-SW 210 0 min 2,7 C 6,2 C
16.09.2012 04:39 6,1 C 78 % 1017,7 hPa 0,0 l/m 0,0 km/h (0 Bft) S-SW 210 0 min 2,6 C 6,1 C
16.09.2012 04:44 5,9 C 79 % 1017,7 hPa 0,0 l/m 0,0 km/h (0 Bft) S-SW 210 0 min 2,5 C 5,9 C
16.09.2012 04:49 5,9 C 78 % 1017,7 hPa 0,0 l/m 0,0 km/h (0 Bft) S-SW 210 0 min 2,4 C 5,9 C
16.09.2012 04:54 5,8 C 78 % 1017,7 hPa 0,0 l/m 0,0 km/h (0 Bft) S-SW 210 0 min 2,3 C 5,8 C
16.09.2012 04:59 5,7 C 78 % 1017,7 hPa 0,0 l/m 0,0 km/h (0 Bft) S-SW 210 0 min 2,2 C 5,7 C
16.09.2012 05:04 5,7 C 79 % 1017,7 hPa 0,0 l/m 0,0 km/h (0 Bft) S-SW 210 0 min 2,3 C 5,7 C
16.09.2012 05:09 5,6 C 79 % 1017,7 hPa 0,0 l/m 0,0 km/h (0 Bft) S-SW 210 0 min 2,3 C 5,6 C
16.09.2012 05:14 5,5 C 79 % 1017,7 hPa 0,0 l/m 0,0 km/h (0 Bft) S-SW 210 0 min 2,2 C 5,5 C
16.09.2012 05:19 5,5 C 79 % 1017,7 hPa 0,0 l/m 0,0 km/h (0 Bft) S-SW 210 0 min 2,2 C 5,5 C
16.09.2012 05:24 5,5 C 79 % 1017,7 hPa 0,0 l/m 0,0 km/h (0 Bft) S-SW 210 0 min 2,2 C 5,5 C
16.09.2012 05:29 5,5 C 79 % 1017,7 hPa 0,0 l/m 0,0 km/h (0 Bft) S-SW 210 0 min 2,2 C 5,5 C
16.09.2012 05:34 5,6 C 79 % 1017,7 hPa 0,0 l/m 0,0 km/h (0 Bft) S-SW 210 0 min 2,3 C 5,6 C
16.09.2012 05:39 5,6 C 79 % 1017,7 hPa 0,0 l/m 0,0 km/h (0 Bft) S-SW 210 0 min 2,3 C 5,6 C
16.09.2012 05:44 5,6 C 79 % 1017,7 hPa 0,0 l/m 0,0 km/h (0 Bft) S-SW 210 0 min 2,3 C 5,6 C
16.09.2012 05:49 5,6 C 79 % 1017,7 hPa 0,0 l/m 0,0 km/h (0 Bft) S-SW 210 0 min 2,3 C 5,6 C
16.09.2012 05:54 5,6 C 79 % 1017,7 hPa 0,0 l/m 0,0 km/h (0 Bft) S-SW 210 0 min 2,3 C 5,6 C
16.09.2012 06:00 5,5 C 79 % 1017,7 hPa 0,0 l/m 0,0 km/h (0 Bft) S-SW 210 0 min 2,2 C 5,5 C
16.09.2012 06:05 5,6 C 79 % 1017,7 hPa 0,0 l/m 0,0 km/h (0 Bft) S-SW 210 0 min 2,3 C 5,6 C
16.09.2012 06:09 5,5 C 79 % 1017,7 hPa 0,0 l/m 0,0 km/h (0 Bft) S-SW 210 0 min 2,2 C 5,5 C
16.09.2012 06:14 5,5 C 79 % 1017,7 hPa 0,0 l/m 0,0 km/h (0 Bft) S-SW 210 0 min 2,2 C 5,5 C
16.09.2012 06:19 5,4 C 79 % 1017,7 hPa 0,0 l/m 0,0 km/h (0 Bft) S-SW 210 0 min 2,1 C 5,4 C
16.09.2012 06:24 5,4 C 79 % 1017,7 hPa 0,0 l/m 0,0 km/h (0 Bft) S-SW 210 0 min 2,1 C 5,4 C
16.09.2012 06:29 5,3 C 79 % 1017,7 hPa 0,0 l/m 0,0 km/h (0 Bft) S-SW 210 0 min 2,0 C 5,3 C
16.09.2012 06:34 5,3 C 79 % 1017,7 hPa 0,0 l/m 0,0 km/h (0 Bft) S-SW 210 0 min 2,0 C 5,3 C
16.09.2012 06:39 5,2 C 79 % 1017,7 hPa 0,0 l/m 0,0 km/h (0 Bft) S-SW 210 0 min 1,9 C 5,2 C
16.09.2012 06:44 5,2 C 79 % 1017,7 hPa 0,0 l/m 0,0 km/h (0 Bft) S-SW 210 0 min 1,9 C 5,2 C
16.09.2012 06:49 5,2 C 79 % 1017,7 hPa 0,0 l/m 0,0 km/h (0 Bft) S-SW 210 0 min 1,9 C 5,2 C
16.09.2012 06:54 5,2 C 79 % 1017,7 hPa 0,0 l/m 0,0 km/h (0 Bft) S-SW 210 0 min 1,9 C 5,2 C
16.09.2012 06:59 5,2 C 79 % 1017,7 hPa 0,0 l/m 0,0 km/h (0 Bft) S-SW 210 0 min 1,9 C 5,2 C
16.09.2012 07:04 5,2 C 79 % 1017,7 hPa 0,0 l/m 0,0 km/h (0 Bft) S-SW 210 0 min 1,9 C 5,2 C
16.09.2012 07:09 5,2 C 79 % 1017,7 hPa 0,0 l/m 0,0 km/h (0 Bft) S-SW 210 0 min 1,9 C 5,2 C
16.09.2012 07:14 5,2 C 79 % 1017,7 hPa 0,0 l/m 0,0 km/h (0 Bft) S-SW 210 0 min 1,9 C 5,2 C
16.09.2012 07:19 5,2 C 80 % 1017,7 hPa 0,0 l/m 0,0 km/h (0 Bft) S-SW 210 0 min 2,0 C 5,2 C
16.09.2012 07:24 5,3 C 80 % 1017,7 hPa 0,0 l/m 0,0 km/h (0 Bft) S-SW 210 0 min 2,1 C 5,3 C
16.09.2012 07:29 5,4 C 80 % 1017,7 hPa 0,0 l/m 0,0 km/h (0 Bft) SW 215 0 min 2,2 C 5,4 C
16.09.2012 07:34 5,4 C 80 % 1017,7 hPa 0,0 l/m 0,0 km/h (0 Bft) S-SW 210 0 min 2,2 C 5,4 C
16.09.2012 07:39 5,6 C 80 % 1017,7 hPa 0,0 l/m 0,0 km/h (0 Bft) S-SW 210 0 min 2,4 C 5,6 C
16.09.2012 07:44 5,7 C 80 % 1017,7 hPa 0,0 l/m 0,0 km/h (0 Bft) S-SW 210 0 min 2,5 C 5,7 C
16.09.2012 07:49 5,7 C 80 % 1017,7 hPa 0,0 l/m 0,0 km/h (0 Bft) S-SW 210 0 min 2,5 C 5,7 C
16.09.2012 07:54 5,8 C 81 % 1017,7 hPa 0,0 l/m 0,0 km/h (0 Bft) S-SW 210 0 min 2,8 C 5,8 C
16.09.2012 07:59 6,0 C 80 % 1017,7 hPa 0,0 l/m 0,0 km/h (0 Bft) S-SW 210 0 min 2,8 C 6,0 C
16.09.2012 08:04 6,0 C 80 % 1017,7 hPa 0,0 l/m 0,0 km/h (0 Bft) S-SW 210 0 min 2,8 C 6,0 C
16.09.2012 08:09 6,2 C 80 % 1017,7 hPa 0,0 l/m 0,0 km/h (0 Bft) S-SW 210 0 min 3,0 C 6,2 C
16.09.2012 08:14 6,3 C 80 % 1017,7 hPa 0,0 l/m 0,0 km/h (0 Bft) S-SW 210 0 min 3,1 C 6,3 C
16.09.2012 08:19 6,3 C 80 % 1017,7 hPa 0,0 l/m 0,0 km/h (0 Bft) S-SW 210 0 min 3,1 C 6,3 C
16.09.2012 08:24 6,4 C 80 % 1017,7 hPa 0,0 l/m 0,0 km/h (0 Bft) S-SW 210 0 min 3,2 C 6,4 C
16.09.2012 08:29 6,5 C 80 % 1017,7 hPa 0,0 l/m 0,0 km/h (0 Bft) S-SW 210 0 min 3,3 C 6,5 C
16.09.2012 08:34 6,8 C 81 % 1017,7 hPa 0,0 l/m 0,0 km/h (0 Bft) S-SW 210 0 min 3,8 C 6,8 C
16.09.2012 08:39 6,9 C 81 % 1017,7 hPa 0,0 l/m 0,0 km/h (0 Bft) S-SW 210 0 min 3,9 C 6,9 C
16.09.2012 08:44 7,1 C 80 % 1017,7 hPa 0,0 l/m 0,0 km/h (0 Bft) SW 215 0 min 3,9 C 7,1 C
16.09.2012 08:49 7,2 C 79 % 1017,7 hPa 0,0 l/m 0,0 km/h (0 Bft) SW 215 0 min 3,8 C 7,2 C
16.09.2012 08:54 7,2 C 79 % 1017,7 hPa 0,0 l/m 0,0 km/h (0 Bft) S-SW 210 0 min 3,8 C 7,2 C
16.09.2012 08:59 7,4 C 79 % 1017,7 hPa 0,0 l/m 0,0 km/h (0 Bft) SW 225 0 min 4,0 C 7,4 C
16.09.2012 09:04 7,8 C 80 % 1017,7 hPa 0,0 l/m 0,0 km/h (0 Bft) S-SW 205 0 min 4,6 C 7,8 C
16.09.2012 09:09 8,0 C 79 % 1017,7 hPa 0,0 l/m 0,0 km/h (0 Bft) S-SW 205 0 min 4,6 C 8,0 C
16.09.2012 09:14 8,3 C 79 % 1017,7 hPa 0,0 l/m 0,0 km/h (0 Bft) S-SW 205 0 min 4,9 C 8,3 C
16.09.2012 09:19 8,4 C 79 % 1017,7 hPa 0,0 l/m 0,0 km/h (0 Bft) S-SW 205 0 min 5,0 C 8,4 C
16.09.2012 09:24 8,5 C 79 % 1017,7 hPa 0,0 l/m 0,0 km/h (0 Bft) S-SW 205 0 min 5,1 C 8,5 C
16.09.2012 09:29 8,9 C 79 % 1017,7 hPa 0,0 l/m 0,0 km/h (0 Bft) SW 215 0 min 5,5 C 8,9 C
16.09.2012 09:34 9,2 C 78 % 1017,7 hPa 0,0 l/m 0,0 km/h (0 Bft) SW 230 0 min 5,6 C 9,2 C
16.09.2012 09:39 9,5 C 78 % 1017,7 hPa 0,0 l/m 0,0 km/h (0 Bft) S-SW 205 0 min 5,9 C 9,5 C
16.09.2012 09:44 9,7 C 78 % 1017,7 hPa 0,0 l/m 0,0 km/h (0 Bft) S-SW 210 0 min 6,1 C 9,7 C
16.09.2012 09:49 10,2 C 77 % 1017,7 hPa 0,0 l/m 0,0 km/h (0 Bft) S-SW 205 0 min 6,4 C 10,2 C
16.09.2012 09:54 10,8 C 77 % 1017,7 hPa 0,0 l/m 0,0 km/h (0 Bft) SW 215 0 min 6,9 C 10,8 C
16.09.2012 09:59 11,1 C 76 % 1017,7 hPa 0,0 l/m 0,0 km/h (0 Bft) S-SW 210 0 min 7,0 C 11,1 C
16.09.2012 10:04 11,4 C 76 % 1017,7 hPa 0,0 l/m 0,0 km/h (0 Bft) S-SW 210 0 min 7,3 C 11,4 C
16.09.2012 10:09 11,8 C 76 % 1017,7 hPa 0,0 l/m 0,0 km/h (0 Bft) S-SW 210 0 min 7,7 C 11,8 C
16.09.2012 10:14 12,0 C 75 % 1017,7 hPa 0,0 l/m 0,1 km/h (0 Bft) S-SW 210 0 min 7,7 C 12,0 C
16.09.2012 10:19 12,3 C 75 % 1017,7 hPa 0,0 l/m 0,0 km/h (0 Bft) S-SW 210 0 min 8,0 C 12,3 C
16.09.2012 10:24 12,7 C 75 % 1017,7 hPa 0,0 l/m 0,0 km/h (0 Bft) SW 220 0 min 8,4 C 12,7 C
16.09.2012 10:29 12,9 C 75 % 1017,7 hPa 0,0 l/m 0,0 km/h (0 Bft) SW 215 0 min 8,6 C 12,9 C
16.09.2012 10:34 13,3 C 74 % 1017,7 hPa 0,0 l/m 0,0 km/h (0 Bft) SW 215 0 min 8,8 C 13,3 C
16.09.2012 10:39 13,9 C 75 % 1017,7 hPa 0,0 l/m 0,0 km/h (0 Bft) S-SW 195 0 min 9,5 C 13,9 C
16.09.2012 10:44 14,4 C 74 % 1017,7 hPa 0,0 l/m 0,4 km/h (0 Bft) S 185 0 min 9,8 C 14,4 C
16.09.2012 10:49 14,6 C 73 % 1017,7 hPa 0,0 l/m 6,9 km/h (2 Bft) S 175 0 min 9,8 C 14,3 C
16.09.2012 10:54 14,9 C 73 % 1017,7 hPa 0,0 l/m 0,0 km/h (0 Bft) S-SO 150 0 min 10,1 C 14,9 C
16.09.2012 10:59 15,2 C 72 % 1017,7 hPa 0,0 l/m 0,0 km/h (0 Bft) SO 130 0 min 10,2 C 15,2 C
16.09.2012 11:04 15,5 C 72 % 1017,7 hPa 0,0 l/m 0,0 km/h (0 Bft) SO 135 0 min 10,5 C 15,5 C
16.09.2012 11:09 15,8 C 71 % 1017,7 hPa 0,0 l/m 6,1 km/h (2 Bft) S 185 0 min 10,6 C 15,8 C
16.09.2012 11:14 16,1 C 70 % 1017,7 hPa 0,0 l/m 0,3 km/h (0 Bft) S-SO 165 0 min 10,6 C 16,1 C
16.09.2012 11:19 16,3 C 70 % 1017,7 hPa 0,0 l/m 9,0 km/h (2 Bft) S-SW 200 0 min 10,8 C 15,0 C
16.09.2012 11:24 16,6 C 69 % 1017,7 hPa 0,0 l/m 0,1 km/h (0 Bft) S 185 0 min 10,9 C 16,6 C
16.09.2012 11:29 17,1 C 68 % 1017,7 hPa 0,0 l/m 0,7 km/h (0 Bft) S-SO 155 0 min 11,1 C 17,1 C
16.09.2012 11:34 17,3 C 66 % 1017,7 hPa 0,0 l/m 0,0 km/h (0 Bft) S-SW 210 0 min 10,9 C 17,3 C
16.09.2012 11:39 17,4 C 65 % 1017,7 hPa 0,0 l/m 1,2 km/h (1 Bft) S-SW 205 0 min 10,8 C 17,4 C
16.09.2012 11:44 17,2 C 63 % 1016,7 hPa 0,0 l/m 8,9 km/h (2 Bft) W 270 0 min 10,1 C 16,0 C
16.09.2012 11:49 17,7 C 64 % 1016,7 hPa 0,0 l/m 7,0 km/h (2 Bft) W 270 0 min 10,8 C 17,4 C
16.09.2012 11:54 17,7 C 60 % 1016,7 hPa 0,0 l/m 9,2 km/h (2 Bft) NW 315 0 min 9,8 C 16,4 C
16.09.2012 11:59 17,9 C 60 % 1016,7 hPa 0,0 l/m 6,2 km/h (2 Bft) W 280 0 min 10,0 C 17,9 C
16.09.2012 12:04 18,3 C 60 % 1016,7 hPa 0,0 l/m 7,9 km/h (2 Bft) W 270 0 min 10,4 C 17,6 C
16.09.2012 12:09 18,3 C 60 % 1016,7 hPa 0,0 l/m 7,2 km/h (2 Bft) W 260 0 min 10,4 C 17,9 C
16.09.2012 12:14 18,5 C 59 % 1016,7 hPa 0,0 l/m 0,6 km/h (0 Bft) W-SW 255 0 min 10,3 C 18,5 C
16.09.2012 12:19 18,7 C 58 % 1016,7 hPa 0,0 l/m 7,1 km/h (2 Bft) W-NW 285 0 min 10,3 C 18,4 C
16.09.2012 12:25 18,8 C 56 % 1016,7 hPa 0,0 l/m 7,3 km/h (2 Bft) SW 235 0 min 9,8 C 18,4 C
16.09.2012 12:30 19,0 C 57 % 1016,7 hPa 0,0 l/m 8,5 km/h (2 Bft) W 265 0 min 10,3 C 18,1 C
16.09.2012 12:35 19,2 C 55 % 1016,7 hPa 0,0 l/m 0,3 km/h (0 Bft) W-SW 245 0 min 9,9 C 19,2 C
16.09.2012 12:40 19,4 C 56 % 1016,7 hPa 0,0 l/m 5,3 km/h (1 Bft) W-SW 245 0 min 10,4 C 19,4 C
16.09.2012 12:45 19,5 C 55 % 1016,7 hPa 0,0 l/m 14,5 km/h (3 Bft) W 270 0 min 10,2 C 16,8 C
16.09.2012 12:49 19,5 C 53 % 1016,7 hPa 0,0 l/m 14,6 km/h (3 Bft) NW 305 0 min 9,7 C 16,7 C
16.09.2012 12:54 19,3 C 52 % 1016,7 hPa 0,0 l/m 10,1 km/h (2 Bft) W-NW 285 0 min 9,2 C 17,8 C
16.09.2012 12:59 19,4 C 53 % 1016,7 hPa 0,0 l/m 9,3 km/h (2 Bft) W 280 0 min 9,6 C 18,2 C
16.09.2012 13:04 19,7 C 53 % 1016,7 hPa 0,0 l/m 2,9 km/h (1 Bft) W 270 0 min 9,8 C 19,7 C
16.09.2012 13:09 19,9 C 53 % 1016,7 hPa 0,0 l/m 11,8 km/h (2 Bft) SW 230 0 min 10,0 C 18,0 C
16.09.2012 13:14 20,0 C 53 % 1016,7 hPa 0,0 l/m 0,7 km/h (0 Bft) W 270 0 min 10,1 C 20,0 C
16.09.2012 13:19 20,2 C 52 % 1016,7 hPa 0,0 l/m 12,6 km/h (3 Bft) W-NW 285 0 min 10,0 C 18,1 C
16.09.2012 13:24 20,4 C 52 % 1016,7 hPa 0,0 l/m 11,3 km/h (2 Bft) W-NW 285 0 min 10,2 C 18,7 C
16.09.2012 13:29 20,6 C 52 % 1016,7 hPa 0,0 l/m 11,0 km/h (2 Bft) W 275 0 min 10,4 C 19,0 C
16.09.2012 13:34 20,6 C 52 % 1016,7 hPa 0,0 l/m 1,2 km/h (1 Bft) SW 225 0 min 10,4 C 20,6 C
16.09.2012 13:39 20,7 C 52 % 1016,7 hPa 0,0 l/m 4,7 km/h (1 Bft) W 280 0 min 10,5 C 20,7 C
16.09.2012 13:44 20,8 C 51 % 1016,7 hPa 0,0 l/m 10,5 km/h (2 Bft) W 280 0 min 10,3 C 19,4 C
16.09.2012 13:49 20,8 C 50 % 1016,7 hPa 0,0 l/m 9,0 km/h (2 Bft) W 275 0 min 10,0 C 19,8 C
16.09.2012 13:54 20,9 C 50 % 1015,7 hPa 0,0 l/m 1,3 km/h (1 Bft) SW 230 0 min 10,1 C 20,9 C
16.09.2012 13:59 20,9 C 49 % 1015,7 hPa 0,0 l/m 7,6 km/h (2 Bft) W 265 0 min 9,8 C 20,4 C
16.09.2012 14:04 20,9 C 50 % 1015,7 hPa 0,0 l/m 8,2 km/h (2 Bft) W 265 0 min 10,1 C 20,2 C
16.09.2012 14:09 20,9 C 50 % 1015,7 hPa 0,0 l/m 8,2 km/h (2 Bft) W 265 0 min 10,1 C 20,2 C
16.09.2012 14:14 20,9 C 48 % 1015,7 hPa 0,0 l/m 12,6 km/h (3 Bft) W-NW 285 0 min 9,5 C 18,9 C
16.09.2012 14:19 20,9 C 47 % 1015,7 hPa 0,0 l/m 14,3 km/h (3 Bft) S 190 0 min 9,2 C 18,5 C
16.09.2012 14:24 21,1 C 47 % 1015,7 hPa 0,0 l/m 14,3 km/h (3 Bft) S 190 0 min 9,3 C 18,7 C
16.09.2012 14:29 21,5 C 48 % 1015,7 hPa 0,0 l/m 7,1 km/h (2 Bft) W-SW 245 0 min 10,0 C 21,2 C
16.09.2012 14:34 21,6 C 47 % 1015,7 hPa 0,0 l/m 11,3 km/h (2 Bft) W 260 0 min 9,8 C 20,1 C
16.09.2012 14:39 21,6 C 47 % 1015,7 hPa 0,0 l/m 7,0 km/h (2 Bft) W-NW 285 0 min 9,8 C 21,4 C
16.09.2012 14:44 21,5 C 46 % 1015,7 hPa 0,0 l/m 15,0 km/h (3 Bft) W 270 0 min 9,4 C 19,1 C
16.09.2012 14:49 21,7 C 47 % 1015,7 hPa 0,0 l/m 9,8 km/h (2 Bft) W 265 0 min 9,9 C 20,6 C
16.09.2012 14:54 21,7 C 47 % 1015,7 hPa 0,0 l/m 9,8 km/h (2 Bft) W 265 0 min 9,9 C 20,6 C
16.09.2012 14:59 21,8 C 47 % 1015,7 hPa 0,0 l/m 0,9 km/h (0 Bft) W 270 0 min 10,0 C 21,8 C
16.09.2012 15:04 21,9 C 47 % 1015,7 hPa 0,0 l/m 11,0 km/h (2 Bft) W-NW 290 0 min 10,1 C 20,5 C
16.09.2012 15:09 22,2 C 47 % 1015,7 hPa 0,0 l/m 0,4 km/h (0 Bft) S-SW 205 0 min 10,3 C 22,2 C
16.09.2012 15:14 22,3 C 45 % 1015,7 hPa 0,0 l/m 9,0 km/h (2 Bft) W 265 0 min 9,8 C 21,5 C
16.09.2012 15:19 22,2 C 45 % 1015,7 hPa 0,0 l/m 9,0 km/h (2 Bft) W 265 0 min 9,7 C 21,4 C
16.09.2012 15:24 22,3 C 45 % 1015,7 hPa 0,0 l/m 1,1 km/h (1 Bft) W 275 0 min 9,8 C 22,3 C
16.09.2012 15:29 22,3 C 45 % 1014,7 hPa 0,0 l/m 10,4 km/h (2 Bft) W-NW 285 0 min 9,8 C 21,1 C
16.09.2012 15:34 22,2 C 45 % 1014,7 hPa 0,0 l/m 11,6 km/h (2 Bft) W-SW 250 0 min 9,7 C 20,7 C
16.09.2012 15:39 22,3 C 45 % 1014,7 hPa 0,0 l/m 12,1 km/h (2 Bft) NW 320 0 min 9,8 C 20,7 C
16.09.2012 15:44 22,2 C 44 % 1014,7 hPa 0,0 l/m 5,5 km/h (1 Bft) W-SW 245 0 min 9,4 C 22,2 C
16.09.2012 15:49 22,2 C 44 % 1014,7 hPa 0,0 l/m 12,0 km/h (2 Bft) W 270 0 min 9,4 C 20,6 C
16.09.2012 15:54 22,6 C 46 % 1014,7 hPa 0,0 l/m 0,4 km/h (0 Bft) S-SW 200 0 min 10,4 C 22,6 C
16.09.2012 15:59 22,5 C 45 % 1014,7 hPa 0,0 l/m 1,6 km/h (1 Bft) W-SW 240 0 min 10,0 C 22,5 C
16.09.2012 16:04 22,1 C 44 % 1014,7 hPa 0,0 l/m 15,0 km/h (3 Bft) W-SW 245 0 min 9,3 C 19,8 C
16.09.2012 16:09 22,5 C 45 % 1014,7 hPa 0,0 l/m 0,3 km/h (0 Bft) W 265 0 min 10,0 C 22,5 C
16.09.2012 16:14 22,7 C 45 % 1014,7 hPa 0,0 l/m 1,1 km/h (1 Bft) SW 225 0 min 10,1 C 22,7 C
16.09.2012 16:19 22,8 C 46 % 1014,7 hPa 0,0 l/m 6,2 km/h (2 Bft) W-SW 240 0 min 10,6 C 22,8 C
16.09.2012 16:24 23,0 C 44 % 1014,7 hPa 0,0 l/m 2,4 km/h (1 Bft) S 175 0 min 10,1 C 23,0 C
16.09.2012 16:29 22,9 C 45 % 1014,7 hPa 0,0 l/m 9,8 km/h (2 Bft) W-SW 250 0 min 10,3 C 21,9 C
16.09.2012 16:34 22,8 C 45 % 1014,7 hPa 0,0 l/m 9,2 km/h (2 Bft) W-NW 290 0 min 10,2 C 21,9 C
16.09.2012 16:39 22,8 C 45 % 1014,7 hPa 0,0 l/m 0,3 km/h (0 Bft) W 275 0 min 10,2 C 22,8 C
16.09.2012 16:44 23,0 C 45 % 1014,7 hPa 0,0 l/m 2,2 km/h (1 Bft) W 280 0 min 10,4 C 23,0 C
16.09.2012 16:49 23,0 C 43 % 1013,7 hPa 0,0 l/m 9,4 km/h (2 Bft) W 260 0 min 9,7 C 22,1 C
16.09.2012 16:54 23,0 C 43 % 1013,7 hPa 0,0 l/m 11,5 km/h (2 Bft) W 270 0 min 9,7 C 21,6 C
16.09.2012 16:59 23,0 C 44 % 1013,7 hPa 0,0 l/m 0,3 km/h (0 Bft) W 280 0 min 10,1 C 23,0 C
16.09.2012 17:04 23,1 C 44 % 1013,7 hPa 0,0 l/m 0,3 km/h (0 Bft) W 280 0 min 10,2 C 23,1 C
16.09.2012 17:09 23,1 C 44 % 1013,7 hPa 0,0 l/m 0,3 km/h (0 Bft) W 280 0 min 10,2 C 23,1 C
16.09.2012 17:14 23,1 C 45 % 1013,7 hPa 0,0 l/m 1,1 km/h (1 Bft) SW 225 0 min 10,5 C 23,1 C
16.09.2012 17:19 23,0 C 45 % 1013,7 hPa 0,0 l/m 7,6 km/h (2 Bft) W-SW 240 0 min 10,4 C 22,6 C
16.09.2012 17:24 22,9 C 46 % 1013,7 hPa 0,0 l/m 12,6 km/h (3 Bft) SW 230 0 min 10,7 C 21,2 C
16.09.2012 17:29 22,8 C 45 % 1013,7 hPa 0,0 l/m 1,2 km/h (1 Bft) W-SW 255 0 min 10,2 C 22,8 C
16.09.2012 17:34 22,7 C 46 % 1013,7 hPa 0,0 l/m 0,0 km/h (0 Bft) SW 230 0 min 10,5 C 22,7 C
16.09.2012 17:39 22,8 C 46 % 1013,7 hPa 0,0 l/m 0,5 km/h (0 Bft) SW 225 0 min 10,6 C 22,8 C
16.09.2012 17:44 22,9 C 46 % 1013,7 hPa 0,0 l/m 3,4 km/h (1 Bft) SW 220 0 min 10,7 C 22,9 C
16.09.2012 17:49 22,7 C 46 % 1013,7 hPa 0,0 l/m 0,3 km/h (0 Bft) S-SW 200 0 min 10,5 C 22,7 C
16.09.2012 17:54 22,5 C 46 % 1013,7 hPa 0,0 l/m 0,6 km/h (0 Bft) S-SW 200 0 min 10,3 C 22,5 C
16.09.2012 17:59 22,3 C 46 % 1013,7 hPa 0,0 l/m 1,6 km/h (1 Bft) SW 215 0 min 10,1 C 22,3 C
16.09.2012 18:04 22,0 C 46 % 1013,7 hPa 0,0 l/m 10,4 km/h (2 Bft) W-SW 240 0 min 9,8 C 20,7 C
16.09.2012 18:09 21,5 C 46 % 1013,7 hPa 0,0 l/m 9,0 km/h (2 Bft) W-SW 240 0 min 9,4 C 20,6 C
16.09.2012 18:14 21,3 C 46 % 1013,7 hPa 0,0 l/m 7,7 km/h (2 Bft) SW 215 0 min 9,2 C 20,8 C
16.09.2012 18:19 21,1 C 47 % 1013,7 hPa 0,0 l/m 0,7 km/h (0 Bft) S 190 0 min 9,3 C 21,1 C
16.09.2012 18:24 20,8 C 48 % 1013,7 hPa 0,0 l/m 1,3 km/h (1 Bft) W-SW 245 0 min 9,4 C 20,8 C
16.09.2012 18:30 20,7 C 48 % 1013,7 hPa 0,0 l/m 7,2 km/h (2 Bft) SW 230 0 min 9,3 C 20,4 C
16.09.2012 18:35 20,3 C 48 % 1013,7 hPa 0,0 l/m 0,7 km/h (0 Bft) S-SW 205 0 min 8,9 C 20,3 C
16.09.2012 18:40 20,0 C 49 % 1013,7 hPa 0,0 l/m 1,7 km/h (1 Bft) W-SW 250 0 min 9,0 C 20,0 C
16.09.2012 18:45 19,8 C 50 % 1013,7 hPa 0,0 l/m 10,5 km/h (2 Bft) SW 225 0 min 9,1 C 18,3 C
16.09.2012 18:50 19,6 C 50 % 1013,7 hPa 0,0 l/m 0,3 km/h (0 Bft) S-SW 195 0 min 8,9 C 19,6 C
16.09.2012 18:54 19,3 C 50 % 1013,7 hPa 0,0 l/m 0,5 km/h (0 Bft) S 180 0 min 8,6 C 19,3 C
16.09.2012 18:59 19,3 C 50 % 1013,7 hPa 0,0 l/m 0,4 km/h (0 Bft) S 180 0 min 8,6 C 19,3 C
16.09.2012 19:04 18,9 C 51 % 1013,7 hPa 0,0 l/m 0,1 km/h (0 Bft) S 180 0 min 8,5 C 18,9 C
16.09.2012 19:09 18,4 C 52 % 1013,7 hPa 0,0 l/m 0,4 km/h (0 Bft) S 185 0 min 8,4 C 18,4 C
16.09.2012 19:14 18,2 C 52 % 1013,7 hPa 0,0 l/m 0,0 km/h (0 Bft) SO 145 0 min 8,2 C 18,2 C
16.09.2012 19:19 17,8 C 53 % 1013,7 hPa 0,0 l/m 0,0 km/h (0 Bft) SO 140 0 min 8,1 C 17,8 C
16.09.2012 19:24 17,4 C 53 % 1013,7 hPa 0,0 l/m 0,0 km/h (0 Bft) SO 140 0 min 7,7 C 17,4 C
16.09.2012 19:29 17,0 C 53 % 1013,7 hPa 0,0 l/m 0,0 km/h (0 Bft) SO 130 0 min 7,4 C 17,0 C
16.09.2012 19:34 16,8 C 54 % 1013,7 hPa 0,0 l/m 0,0 km/h (0 Bft) SO 125 0 min 7,4 C 16,8 C
16.09.2012 19:39 16,4 C 55 % 1013,7 hPa 0,0 l/m 0,0 km/h (0 Bft) SO 125 0 min 7,3 C 16,4 C
16.09.2012 19:44 16,1 C 55 % 1013,7 hPa 0,0 l/m 0,0 km/h (0 Bft) SO 125 0 min 7,1 C 16,1 C
16.09.2012 19:49 15,9 C 56 % 1013,7 hPa 0,0 l/m 0,0 km/h (0 Bft) SO 135 0 min 7,1 C 15,9 C
16.09.2012 19:54 15,6 C 56 % 1013,7 hPa 0,0 l/m 0,0 km/h (0 Bft) SO 135 0 min 6,9 C 15,6 C
16.09.2012 19:59 15,3 C 56 % 1013,7 hPa 0,0 l/m 0,0 km/h (0 Bft) SO 125 0 min 6,6 C 15,3 C
16.09.2012 20:04 15,1 C 56 % 1013,7 hPa 0,0 l/m 0,0 km/h (0 Bft) SO 125 0 min 6,4 C 15,1 C
16.09.2012 20:09 14,8 C 57 % 1013,7 hPa 0,0 l/m 0,0 km/h (0 Bft) SO 125 0 min 6,4 C 14,8 C
16.09.2012 20:14 14,5 C 58 % 1013,7 hPa 0,0 l/m 0,0 km/h (0 Bft) SO 125 0 min 6,3 C 14,5 C
16.09.2012 20:19 14,3 C 57 % 1013,7 hPa 0,0 l/m 0,0 km/h (0 Bft) SO 125 0 min 5,9 C 14,3 C
16.09.2012 20:24 14,1 C 58 % 1013,7 hPa 0,0 l/m 0,0 km/h (0 Bft) SO 125 0 min 6,0 C 14,1 C
16.09.2012 20:29 13,8 C 59 % 1013,7 hPa 0,0 l/m 0,0 km/h (0 Bft) SO 125 0 min 5,9 C 13,8 C
16.09.2012 20:34 13,7 C 59 % 1013,7 hPa 0,0 l/m 0,0 km/h (0 Bft) SO 125 0 min 5,8 C 13,7 C
16.09.2012 20:39 13,5 C 60 % 1013,7 hPa 0,0 l/m 0,0 km/h (0 Bft) SO 125 0 min 5,9 C 13,5 C
16.09.2012 20:44 13,2 C 60 % 1013,7 hPa 0,0 l/m 0,0 km/h (0 Bft) SO 125 0 min 5,6 C 13,2 C
16.09.2012 20:49 13,2 C 61 % 1013,7 hPa 0,0 l/m 0,0 km/h (0 Bft) SO 135 0 min 5,8 C 13,2 C
16.09.2012 20:54 13,1 C 61 % 1013,7 hPa 0,0 l/m 0,0 km/h (0 Bft) SO 135 0 min 5,8 C 13,1 C
16.09.2012 20:59 13,0 C 61 % 1013,7 hPa 0,0 l/m 0,0 km/h (0 Bft) SO 130 0 min 5,7 C 13,0 C
16.09.2012 21:04 12,8 C 62 % 1013,7 hPa 0,0 l/m 0,0 km/h (0 Bft) SO 135 0 min 5,7 C 12,8 C
16.09.2012 21:09 12,7 C 62 % 1013,7 hPa 0,0 l/m 0,0 km/h (0 Bft) SO 130 0 min 5,6 C 12,7 C
16.09.2012 21:14 12,5 C 62 % 1013,7 hPa 0,0 l/m 0,0 km/h (0 Bft) SO 130 0 min 5,4 C 12,5 C
16.09.2012 21:19 12,4 C 62 % 1013,7 hPa 0,0 l/m 0,0 km/h (0 Bft) SO 130 0 min 5,3 C 12,4 C
16.09.2012 21:24 12,2 C 62 % 1013,7 hPa 0,0 l/m 0,0 km/h (0 Bft) SO 125 0 min 5,1 C 12,2 C
16.09.2012 21:29 12,1 C 62 % 1013,7 hPa 0,0 l/m 0,0 km/h (0 Bft) SO 125 0 min 5,0 C 12,1 C
16.09.2012 21:34 11,9 C 63 % 1013,7 hPa 0,0 l/m 0,0 km/h (0 Bft) SO 125 0 min 5,1 C 11,9 C
16.09.2012 21:39 11,7 C 64 % 1013,7 hPa 0,0 l/m 0,0 km/h (0 Bft) SO 125 0 min 5,1 C 11,7 C
16.09.2012 21:44 11,6 C 64 % 1013,7 hPa 0,0 l/m 0,0 km/h (0 Bft) SO 125 0 min 5,0 C 11,6 C
16.09.2012 21:49 11,5 C 64 % 1013,7 hPa 0,0 l/m 0,0 km/h (0 Bft) SO 125 0 min 4,9 C 11,5 C
16.09.2012 21:54 11,3 C 64 % 1013,7 hPa 0,0 l/m 0,0 km/h (0 Bft) SO 125 0 min 4,7 C 11,3 C
16.09.2012 21:59 11,3 C 64 % 1013,7 hPa 0,0 l/m 0,0 km/h (0 Bft) SO 125 0 min 4,7 C 11,3 C
16.09.2012 22:04 11,2 C 64 % 1013,7 hPa 0,0 l/m 0,0 km/h (0 Bft) SO 125 0 min 4,6 C 11,2 C
16.09.2012 22:09 11,0 C 65 % 1013,7 hPa 0,0 l/m 0,0 km/h (0 Bft) SO 125 0 min 4,7 C 11,0 C
16.09.2012 22:14 11,0 C 65 % 1013,7 hPa 0,0 l/m 0,0 km/h (0 Bft) SO 125 0 min 4,7 C 11,0 C
16.09.2012 22:19 10,9 C 66 % 1013,7 hPa 0,0 l/m 0,0 km/h (0 Bft) SO 125 0 min 4,8 C 10,9 C
16.09.2012 22:24 10,8 C 66 % 1013,7 hPa 0,0 l/m 0,0 km/h (0 Bft) SO 125 0 min 4,7 C 10,8 C
16.09.2012 22:29 10,7 C 66 % 1013,7 hPa 0,0 l/m 0,0 km/h (0 Bft) SO 125 0 min 4,6 C 10,7 C
16.09.2012 22:34 10,6 C 66 % 1013,7 hPa 0,0 l/m 0,0 km/h (0 Bft) SO 125 0 min 4,5 C 10,6 C
16.09.2012 22:39 10,5 C 66 % 1013,7 hPa 0,0 l/m 0,0 km/h (0 Bft) SO 125 0 min 4,4 C 10,5 C
16.09.2012 22:44 10,4 C 66 % 1013,7 hPa 0,0 l/m 0,0 km/h (0 Bft) SO 125 0 min 4,3 C 10,4 C
16.09.2012 22:49 10,4 C 66 % 1013,7 hPa 0,0 l/m 0,0 km/h (0 Bft) SO 125 0 min 4,3 C 10,4 C
16.09.2012 22:54 10,3 C 67 % 1013,7 hPa 0,0 l/m 0,0 km/h (0 Bft) SO 125 0 min 4,4 C 10,3 C
16.09.2012 22:59 10,2 C 67 % 1013,7 hPa 0,0 l/m 0,0 km/h (0 Bft) SO 125 0 min 4,4 C 10,2 C
16.09.2012 23:04 10,1 C 67 % 1013,7 hPa 0,0 l/m 0,0 km/h (0 Bft) SO 125 0 min 4,3 C 10,1 C
16.09.2012 23:09 10,0 C 67 % 1013,7 hPa 0,0 l/m 0,0 km/h (0 Bft) SO 125 0 min 4,2 C 10,0 C
16.09.2012 23:14 10,0 C 67 % 1013,7 hPa 0,0 l/m 0,0 km/h (0 Bft) SO 125 0 min 4,2 C 10,0 C
16.09.2012 23:19 9,9 C 68 % 1013,7 hPa 0,0 l/m 0,0 km/h (0 Bft) SO 125 0 min 4,3 C 9,9 C
16.09.2012 23:24 9,8 C 68 % 1013,7 hPa 0,0 l/m 0,0 km/h (0 Bft) SO 125 0 min 4,2 C 9,8 C
16.09.2012 23:29 9,7 C 68 % 1013,7 hPa 0,0 l/m 0,0 km/h (0 Bft) SO 125 0 min 4,1 C 9,7 C
16.09.2012 23:34 9,6 C 68 % 1013,7 hPa 0,0 l/m 0,0 km/h (0 Bft) SO 125 0 min 4,0 C 9,6 C
16.09.2012 23:39 9,6 C 69 % 1013,7 hPa 0,0 l/m 0,0 km/h (0 Bft) SO 125 0 min 4,2 C 9,6 C
16.09.2012 23:44 9,5 C 69 % 1013,7 hPa 0,0 l/m 0,0 km/h (0 Bft) SO 125 0 min 4,1 C 9,5 C
16.09.2012 23:49 9,5 C 69 % 1013,7 hPa 0,0 l/m 0,0 km/h (0 Bft) SO 125 0 min 4,1 C 9,5 C
16.09.2012 23:54 9,5 C 69 % 1013,7 hPa 0,0 l/m 0,0 km/h (0 Bft) SO 125 0 min 4,1 C 9,5 C
16.09.2012 23:59 9,4 C 69 % 1013,7 hPa 0,0 l/m 0,0 km/h (0 Bft) SO 125 0 min 4,0 C 9,4 C
_ Min-Zeit 00:03 16:49 16:49 - 00:03 - - - 06:39 06:39
Minimum _ 0,0 C 43 % 1013,7 hPa - 0,0 km/h (0 Bft) - - - 1,9 C 5,2 C
_ Max-Zeit 17:04 07:54 00:03 00:03 14:44 - - 00:03 11:29 17:04
Maximum _ 23,1 C 81 % 1018,7 hPa 0,0 l/m 15,0 km/h
W (3 Bft)
- - 0 min 11,1 C 23,1 C
Durchschnitt _ 13,0 C 65 % 1016,2 hPa #0,0 l/m 2,0 km/h (1 Bft) W - #0 min. 6,2 C 12,7 C